Time;durP1;ratioP1;P1;durP2;ratioP2;P2;SDS_P1;SDS_P2;PMS_P1;PMS_P2;Temp;Humidity;BMP_temperature;BMP_pressure;BME280_temperature;BME280_humidity;BME280_pressure;Samples;Min_cycle;Max_cycle;Signal;HPM_P1;HPM_P2
2022/08/26 00:00:26;;;;;;;9.93;9.52;;;;;;;19.45;100.00;100330.47;5053453;28;20094;-65
2022/08/26 00:02:51;;;;;;;9.90;9.50;;;;;;;19.36;100.00;100329.19;5058294;28;20598;-65
2022/08/26 00:05:17;;;;;;;10.30;9.80;;;;;;;19.33;100.00;100335.88;5053178;28;20021;-65
2022/08/26 00:07:42;;;;;;;10.45;9.95;;;;;;;19.36;100.00;100329.19;5052962;28;20434;-65
2022/08/26 00:10:09;;;;;;;10.57;10.07;;;;;;;19.28;100.00;100337.63;5052120;28;20013;-65
2022/08/26 00:12:35;;;;;;;10.43;9.93;;;;;;;19.21;100.00;100337.75;5053091;28;20396;-65
2022/08/26 00:15:00;;;;;;;10.23;9.73;;;;;;;19.26;100.00;100329.81;5052903;28;20025;-65
2022/08/26 00:17:26;;;;;;;10.02;9.57;;;;;;;19.13;100.00;100335.44;5052554;28;20028;-65
2022/08/26 00:19:52;;;;;;;10.40;9.90;;;;;;;19.12;100.00;100344.56;5053907;28;20021;-64
2022/08/26 00:22:18;;;;;;;9.93;9.52;;;;;;;19.11;100.00;100347.50;5052579;28;20115;-65
2022/08/26 00:24:43;;;;;;;10.07;9.60;;;;;;;19.17;100.00;100336.63;5052678;28;20092;-64
2022/08/26 00:27:09;;;;;;;10.13;9.63;;;;;;;19.10;100.00;100345.88;5052767;28;20037;-64
2022/08/26 00:29:34;;;;;;;10.10;9.60;;;;;;;19.03;100.00;100337.91;5052637;28;20059;-66
2022/08/26 00:32:01;;;;;;;10.10;9.60;;;;;;;18.93;100.00;100335.78;5065051;28;20032;-65
2022/08/26 00:34:27;;;;;;;10.20;9.70;;;;;;;19.02;100.00;100342.47;5051268;28;20068;-65
2022/08/26 00:36:53;;;;;;;10.88;10.38;;;;;;;18.95;100.00;100336.41;5051392;28;20123;-65
2022/08/26 00:39:19;;;;;;;9.93;9.50;;;;;;;18.95;100.00;100330.19;5052194;28;20017;-65
2022/08/26 00:41:44;;;;;;;9.80;9.40;;;;;;;18.96;100.00;100327.28;5064990;28;20508;-65
2022/08/26 00:44:10;;;;;;;10.27;9.77;;;;;;;18.91;100.00;100335.22;5052299;28;20033;-65
2022/08/26 00:46:45;;;;;;;10.38;9.88;;;;;;;18.99;100.00;100328.66;5052145;28;20087;-65
2022/08/26 00:49:26;;;;;;;9.90;9.40;;;;;;;19.03;100.00;100336.03;5052048;28;20090;-65
2022/08/26 00:51:55;;;;;;;10.40;9.90;;;;;;;19.01;100.00;100335.44;5054022;28;20112;-65
2022/08/26 00:54:23;;;;;;;10.38;9.88;;;;;;;19.02;100.00;100339.78;5058151;28;20025;-65
2022/08/26 00:56:56;;;;;;;9.90;9.50;;;;;;;19.02;100.00;100344.31;5055887;28;20057;-65
2022/08/26 00:59:23;;;;;;;10.32;9.82;;;;;;;18.87;100.00;100333.22;5052048;28;20029;-65
2022/08/26 01:01:49;;;;;;;10.18;9.68;;;;;;;18.85;100.00;100333.47;5051902;28;20024;-65
2022/08/26 01:04:19;;;;;;;10.68;10.18;;;;;;;18.91;100.00;100321.78;5051612;28;20116;-65
2022/08/26 01:06:47;;;;;;;10.57;10.07;;;;;;;18.81;100.00;100329.63;5050254;28;20401;-66
2022/08/26 01:09:13;;;;;;;10.18;9.68;;;;;;;18.83;100.00;100327.50;5050871;28;20086;-65
2022/08/26 01:11:40;;;;;;;9.70;9.30;;;;;;;18.73;100.00;100324.59;5051801;28;20074;-65
2022/08/26 01:14:07;;;;;;;10.13;9.63;;;;;;;18.73;100.00;100330.78;5052294;28;20029;-65
2022/08/26 01:16:32;;;;;;;9.95;9.55;;;;;;;18.81;100.00;100329.63;5051804;28;20488;-65
2022/08/26 01:19:12;;;;;;;10.50;10.00;;;;;;;18.74;100.00;100331.59;5050200;28;20037;-66
2022/08/26 01:21:47;;;;;;;9.80;9.40;;;;;;;18.70;100.00;100328.53;5043281;28;20082;-65
2022/08/26 01:24:13;;;;;;;9.80;9.40;;;;;;;18.73;100.00;100335.34;5059473;28;20129;-65
2022/08/26 01:26:40;;;;;;;9.75;9.35;;;;;;;18.70;100.00;100322.34;5059021;28;20479;-64
2022/08/26 01:29:11;;;;;;;10.30;9.80;;;;;;;18.65;100.00;100319.50;5052595;28;20025;-65
2022/08/26 01:31:46;;;;;;;10.75;10.25;;;;;;;18.64;100.00;100317.88;5051394;28;20028;-64
2022/08/26 01:34:28;;;;;;;10.23;9.73;;;;;;;18.72;100.00;100325.63;5038479;28;20029;-64
2022/08/26 01:37:00;;;;;;;10.32;9.82;;;;;;;18.75;100.00;100327.84;5076861;28;20101;-65
2022/08/26 01:39:26;;;;;;;10.27;9.77;;;;;;;18.70;100.00;100330.41;5052698;28;20107;-64
2022/08/26 01:41:55;;;;;;;10.25;9.75;;;;;;;18.63;100.00;100319.75;5050952;28;20115;-65
2022/08/26 01:44:24;;;;;;;10.13;9.63;;;;;;;18.46;100.00;100330.38;5051356;28;20385;-64
2022/08/26 01:46:51;;;;;;;10.40;9.90;;;;;;;18.43;100.00;100322.75;5051213;28;20124;-65
2022/08/26 01:49:18;;;;;;;9.88;9.45;;;;;;;18.56;100.00;100337.84;5051272;28;20029;-65
2022/08/26 01:51:45;;;;;;;10.20;9.70;;;;;;;18.45;100.00;100331.41;5051327;28;20083;-65
2022/08/26 01:54:11;;;;;;;10.00;9.60;;;;;;;18.45;100.00;100326.03;5050391;28;20024;-64
2022/08/26 01:56:38;;;;;;;10.25;9.75;;;;;;;18.45;100.00;100323.38;5051070;28;20059;-65
2022/08/26 01:59:07;;;;;;;9.75;9.35;;;;;;;18.39;100.00;100324.28;5050853;28;20497;-65
2022/08/26 02:01:33;;;;;;;9.80;9.40;;;;;;;18.39;100.00;100331.53;5066609;28;20448;-63
2022/08/26 02:04:14;;;;;;;10.18;9.68;;;;;;;18.34;100.00;100332.19;5050834;28;20074;-64
2022/08/26 02:06:40;;;;;;;10.18;9.68;;;;;;;18.31;100.00;100327.31;5039753;28;20123;-65
2022/08/26 02:09:07;;;;;;;10.27;9.77;;;;;;;18.33;100.00;100321.69;5051198;28;20025;-64
2022/08/26 02:11:33;;;;;;;10.27;9.77;;;;;;;18.26;100.00;100329.84;5051872;28;20078;-65
2022/08/26 02:14:08;;;;;;;9.95;9.52;;;;;;;18.25;100.00;100328.22;5051330;28;20033;-65
2022/08/26 02:16:38;;;;;;;9.95;9.55;;;;;;;18.28;100.00;100326.94;5050948;28;20554;-64
2022/08/26 02:19:07;;;;;;;9.82;9.43;;;;;;;18.23;100.00;100333.81;5051116;28;20033;-65
2022/08/26 02:21:32;;;;;;;9.95;9.55;;;;;;;18.18;100.00;100332.88;5051261;28;20023;-65
2022/08/26 02:24:09;;;;;;;10.25;9.75;;;;;;;18.06;100.00;100332.81;5051271;28;20494;-65
2022/08/26 02:26:35;;;;;;;10.55;10.05;;;;;;;18.04;100.00;100345.66;5038061;28;20017;-66
2022/08/26 02:29:14;;;;;;;10.27;9.77;;;;;;;18.02;100.00;100339.72;5052658;28;20024;-65
2022/08/26 02:31:41;;;;;;;10.27;9.77;;;;;;;17.99;100.00;100331.28;5050664;28;20062;-65
2022/08/26 02:34:08;;;;;;;10.02;9.55;;;;;;;18.18;100.00;100335.56;5049734;28;20036;-64
2022/08/26 02:36:33;;;;;;;10.07;9.57;;;;;;;18.09;100.00;100324.31;5052552;28;20021;-65
2022/08/26 02:38:58;;;;;;;9.80;9.40;;;;;;;18.02;100.00;100328.16;5062003;28;20050;-65
2022/08/26 02:41:24;;;;;;;9.90;9.50;;;;;;;18.06;100.00;100332.00;5050737;28;20162;-66
2022/08/26 02:43:49;;;;;;;10.30;9.80;;;;;;;18.10;100.00;100327.81;5050703;28;20029;-65
2022/08/26 02:46:15;;;;;;;10.32;9.82;;;;;;;18.11;100.00;100332.97;5050764;28;20045;-65
2022/08/26 02:48:40;;;;;;;10.48;9.98;;;;;;;18.05;100.00;100327.69;5050063;28;20121;-66
2022/08/26 02:51:06;;;;;;;10.23;9.73;;;;;;;18.07;100.00;100336.34;5066411;28;20616;-66
2022/08/26 02:53:31;;;;;;;10.00;9.50;;;;;;;18.06;100.00;100327.44;5047971;28;20541;-65
2022/08/26 02:55:57;;;;;;;9.70;9.30;;;;;;;18.07;100.00;100329.13;5050444;28;20050;-66
2022/08/26 02:58:23;;;;;;;9.80;9.40;;;;;;;18.16;100.00;100326.91;5051014;28;20029;-65
2022/08/26 03:00:48;;;;;;;9.80;9.40;;;;;;;18.14;100.00;100327.16;5052814;28;20381;-64
2022/08/26 03:03:14;;;;;;;10.20;9.70;;;;;;;18.10;100.00;100328.66;5056957;28;20058;-65
2022/08/26 03:05:41;;;;;;;10.40;9.90;;;;;;;18.10;100.00;100342.06;5063549;28;20102;-64
2022/08/26 03:08:07;;;;;;;10.50;10.00;;;;;;;17.98;100.00;100335.00;5053158;28;20028;-65
2022/08/26 03:10:32;;;;;;;9.80;9.40;;;;;;;18.05;100.00;100338.41;5054035;28;20368;-64
2022/08/26 03:12:59;;;;;;;9.43;9.02;;;;;;;18.15;100.00;100352.94;5054207;28;20025;-64
2022/08/26 03:15:25;;;;;;;9.88;9.48;;;;;;;18.13;100.00;100346.16;5054017;28;20055;-65
2022/08/26 03:17:50;;;;;;;10.10;9.60;;;;;;;18.07;100.00;100344.41;5053996;28;20544;-65
2022/08/26 03:20:17;;;;;;;10.52;10.02;;;;;;;18.13;100.00;100349.66;5057294;28;20044;-65
2022/08/26 03:22:43;;;;;;;10.38;9.88;;;;;;;18.19;100.00;100340.69;5053504;28;20365;-64
2022/08/26 03:25:10;;;;;;;10.13;9.63;;;;;;;18.10;100.00;100342.06;5053776;28;20025;-65
2022/08/26 03:27:36;;;;;;;9.68;9.27;;;;;;;18.02;100.00;100338.88;5054040;28;20037;-65
2022/08/26 03:32:47;;;;;;;10.10;9.60;;;;;;;18.14;100.00;100342.41;5053970;28;20101;-65
2022/08/26 03:35:12;;;;;;;9.80;9.40;;;;;;;18.17;100.00;100337.41;5056741;28;20048;-65
2022/08/26 03:37:38;;;;;;;9.68;9.27;;;;;;;18.29;100.00;100340.16;5058585;28;20032;-64
2022/08/26 03:40:07;;;;;;;9.40;9.00;;;;;;;18.24;100.00;100329.28;5052917;28;20028;-65
2022/08/26 03:42:35;;;;;;;9.63;9.23;;;;;;;18.31;100.00;100332.69;5053543;28;20106;-65
2022/08/26 03:45:01;;;;;;;10.30;9.80;;;;;;;18.50;100.00;100333.38;5053540;28;20024;-65
2022/08/26 03:47:26;;;;;;;10.20;9.70;;;;;;;18.67;100.00;100326.34;5053223;28;20048;-65
2022/08/26 03:49:52;;;;;;;9.98;9.57;;;;;;;18.90;100.00;100325.53;5052585;28;20025;-65
2022/08/26 03:52:17;;;;;;;9.75;9.35;;;;;;;19.13;100.00;100326.56;5053458;28;20079;-64
2022/08/26 03:54:42;;;;;;;10.38;9.88;;;;;;;19.42;100.00;100328.25;5053055;28;20032;-65
2022/08/26 03:57:08;;;;;;;10.25;9.75;;;;;;;19.54;100.00;100322.84;5052622;28;20140;-65
2022/08/26 03:59:33;;;;;;;9.65;9.25;;;;;;;20.05;100.00;100327.38;5058935;28;20039;-65
2022/08/26 04:01:59;;;;;;;9.88;9.48;;;;;;;20.24;100.00;100327.13;5054735;28;20036;-65
2022/08/26 04:04:24;;;;;;;9.95;9.55;;;;;;;20.74;100.00;100329.06;5053215;28;20507;-65
2022/08/26 04:06:57;;;;;;;9.77;9.38;;;;;;;21.39;100.00;100329.19;5053073;28;20025;-65
2022/08/26 04:09:22;;;;;;;10.00;9.60;;;;;;;21.99;100.00;100330.16;5065828;28;20024;-67
2022/08/26 04:11:48;;;;;;;10.38;9.88;;;;;;;22.54;100.00;100334.44;5052677;28;20025;-66
2022/08/26 04:14:18;;;;;;;10.30;9.80;;;;;;;23.20;100.00;100329.50;5052150;28;20033;-66
2022/08/26 04:16:45;;;;;;;10.00;9.60;;;;;;;23.56;100.00;100329.66;5055849;28;20464;-67
2022/08/26 04:19:13;;;;;;;10.00;9.60;;;;;;;24.41;100.00;100332.88;5052605;28;20025;-66
2022/08/26 04:21:40;;;;;;;10.15;9.75;;;;;;;25.29;100.00;100337.91;5052774;28;20078;-66
2022/08/26 04:24:07;;;;;;;9.93;9.52;;;;;;;25.20;100.00;100337.69;5052628;28;20107;-67
2022/08/26 04:26:36;;;;;;;10.10;9.70;;;;;;;25.61;100.00;100334.78;5052713;28;20025;-66
2022/08/26 04:29:04;;;;;;;10.00;9.60;;;;;;;27.09;93.04;100337.25;5052217;28;20021;-67
2022/08/26 04:31:30;;;;;;;10.40;9.90;;;;;;;27.40;89.42;100337.72;5051776;28;20031;-65
2022/08/26 04:33:55;;;;;;;9.90;9.50;;;;;;;27.34;88.36;100332.63;5052717;28;20391;-67
2022/08/26 04:36:24;;;;;;;10.20;9.80;;;;;;;27.67;86.67;100333.56;5052225;28;20033;-66
2022/08/26 04:38:50;;;;;;;10.30;9.90;;;;;;;27.81;84.93;100340.75;5052443;28;20068;-66
2022/08/26 04:41:17;;;;;;;10.00;9.60;;;;;;;27.68;85.55;100340.66;5052409;28;20029;-66
2022/08/26 04:43:45;;;;;;;9.70;9.30;;;;;;;28.63;80.48;100342.22;5065145;28;20042;-66
2022/08/26 04:46:15;;;;;;;9.85;9.45;;;;;;;29.36;73.66;100333.22;5052240;28;20049;-67
2022/08/26 04:48:41;;;;;;;10.43;9.95;;;;;;;29.72;75.33;100332.50;5050326;28;20037;-67
2022/08/26 04:51:06;;;;;;;10.57;10.07;;;;;;;30.76;68.49;100344.28;5058060;28;20028;-68
2022/08/26 04:53:32;;;;;;;10.20;9.80;;;;;;;31.43;63.19;100337.78;5051828;28;20032;-66
2022/08/26 04:55:58;;;;;;;10.40;9.90;;;;;;;31.51;62.76;100346.06;5051565;28;20032;-67
2022/08/26 04:58:24;;;;;;;10.35;9.95;;;;;;;31.33;61.52;100345.19;5050411;28;20029;-67
2022/08/26 05:00:52;;;;;;;9.80;9.40;;;;;;;31.88;59.75;100336.47;5051403;28;20067;-67
2022/08/26 05:03:18;;;;;;;10.10;9.70;;;;;;;32.69;54.82;100341.25;5050521;28;20033;-66
2022/08/26 05:05:46;;;;;;;10.25;9.85;;;;;;;32.79;53.29;100339.28;5039417;28;20032;-66
2022/08/26 05:08:13;;;;;;;10.00;9.60;;;;;;;33.52;50.63;100338.00;5051989;28;20021;-68
2022/08/26 05:10:41;;;;;;;10.18;9.77;;;;;;;33.28;48.87;100342.50;5051517;28;20025;-65
2022/08/26 05:13:07;;;;;;;10.05;9.65;;;;;;;33.57;47.37;100348.03;5051855;28;20032;-68
2022/08/26 05:15:34;;;;;;;10.10;9.70;;;;;;;34.31;45.10;100352.00;5051780;28;20029;-67
2022/08/26 05:18:02;;;;;;;10.15;9.75;;;;;;;34.42;45.21;100349.66;5051985;28;20024;-66
2022/08/26 05:20:28;;;;;;;10.10;9.70;;;;;;;34.44;44.38;100352.88;5051846;28;20131;-66
2022/08/26 05:22:53;;;;;;;9.95;9.55;;;;;;;34.61;43.09;100358.22;5040405;28;20108;-67
2022/08/26 05:25:19;;;;;;;9.88;9.48;;;;;;;34.98;41.85;100356.34;5048877;28;20063;-68
2022/08/26 05:27:44;;;;;;;10.15;9.75;;;;;;;35.28;41.59;100345.13;5051691;28;20028;-67
2022/08/26 05:30:10;;;;;;;9.90;9.50;;;;;;;34.91;42.28;100352.56;5051681;28;20486;-67
2022/08/26 05:32:36;;;;;;;9.90;9.50;;;;;;;35.24;41.02;100352.44;5051500;28;20032;-67
2022/08/26 05:35:01;;;;;;;9.98;9.57;;;;;;;35.27;40.14;100341.56;5051796;28;20538;-67
2022/08/26 05:37:27;;;;;;;9.90;9.50;;;;;;;35.15;40.67;100345.09;5051753;28;20021;-66
2022/08/26 05:39:52;;;;;;;10.07;9.68;;;;;;;35.15;41.37;100349.81;5050968;28;20055;-66
2022/08/26 05:42:18;;;;;;;10.00;9.60;;;;;;;35.41;40.36;100344.78;5051143;28;20480;-67
2022/08/26 05:44:44;;;;;;;9.75;9.35;;;;;;;35.76;39.73;100347.00;5051397;28;20025;-67
2022/08/26 05:47:09;;;;;;;9.98;9.57;;;;;;;35.88;40.41;100344.22;5051313;28;20164;-66
2022/08/26 05:49:35;;;;;;;9.70;9.30;;;;;;;35.72;39.79;100346.91;5050012;28;20021;-66
2022/08/26 05:52:00;;;;;;;10.00;9.60;;;;;;;36.20;39.25;100350.69;5049841;28;20377;-68
2022/08/26 05:54:26;;;;;;;10.02;9.63;;;;;;;36.36;38.66;100341.63;5051184;28;20021;-67
2022/08/26 05:56:52;;;;;;;9.93;9.52;;;;;;;36.18;38.28;100339.19;5050490;28;20029;-66
2022/08/26 05:59:18;;;;;;;9.95;9.55;;;;;;;35.78;38.47;100341.97;5050864;28;20025;-66
2022/08/26 06:01:43;;;;;;;9.75;9.35;;;;;;;36.74;38.17;100346.66;5051185;28;20078;-67
2022/08/26 06:04:10;;;;;;;9.80;9.40;;;;;;;36.22;38.14;100342.06;5051013;28;20033;-66
2022/08/26 06:06:40;;;;;;;9.82;9.43;;;;;;;36.44;37.73;100343.50;5051455;28;20024;-66
2022/08/26 06:09:06;;;;;;;9.85;9.45;;;;;;;36.53;37.95;100339.41;5051691;28;20013;-67
2022/08/26 06:11:32;;;;;;;9.73;9.32;;;;;;;37.61;36.01;100346.44;5051339;28;20024;-67
2022/08/26 06:14:00;;;;;;;9.80;9.40;;;;;;;36.89;37.10;100343.13;5050905;28;20155;-67
2022/08/26 06:16:27;;;;;;;9.77;9.38;;;;;;;37.22;35.98;100341.94;5051287;28;20047;-66
2022/08/26 06:18:53;;;;;;;9.90;9.50;;;;;;;37.17;35.98;100334.72;5051270;28;20024;-67
2022/08/26 06:21:27;;;;;;;9.70;9.30;;;;;;;37.50;34.68;100341.81;5050944;28;20025;-67
2022/08/26 06:26:45;;;;;;;9.90;9.50;;;;;;;38.56;31.83;100348.81;5051056;28;20047;-67
2022/08/26 06:29:11;;;;;;;9.50;9.10;;;;;;;38.70;32.18;100348.28;5051235;28;20017;-67
2022/08/26 06:31:36;;;;;;;9.60;9.20;;;;;;;38.10;31.55;100351.44;5048257;28;20035;-67
2022/08/26 06:34:04;;;;;;;9.75;9.35;;;;;;;38.05;31.61;100353.72;5047782;28;20507;-67
2022/08/26 06:36:29;;;;;;;9.65;9.25;;;;;;;37.92;33.05;100357.81;5054015;28;20464;-67
2022/08/26 06:39:00;;;;;;;9.73;9.32;;;;;;;38.55;32.79;100357.47;5053771;28;20115;-67
2022/08/26 06:41:26;;;;;;;9.50;9.10;;;;;;;38.51;31.67;100348.31;5052180;28;20362;-66
2022/08/26 06:43:51;;;;;;;9.65;9.25;;;;;;;39.04;31.48;100354.81;5055661;28;20029;-66
2022/08/26 06:46:19;;;;;;;9.75;9.35;;;;;;;39.75;30.68;100357.91;5055246;28;20486;-65
2022/08/26 06:48:45;;;;;;;9.85;9.45;;;;;;;39.37;30.89;100345.84;5054232;28;20436;-69
2022/08/26 06:51:15;;;;;;;10.18;9.77;;;;;;;38.78;31.34;100341.69;5044424;28;20025;-68
2022/08/26 06:53:44;;;;;;;9.77;9.38;;;;;;;39.06;30.62;100340.56;5045660;28;20025;-68
2022/08/26 06:56:10;;;;;;;9.85;9.45;;;;;;;38.29;31.03;100339.59;5049473;28;20025;-69
2022/08/26 06:58:38;;;;;;;9.90;9.50;;;;;;;39.53;29.69;100333.75;5059485;28;20044;-69
2022/08/26 07:01:12;;;;;;;9.82;9.43;;;;;;;39.71;30.21;100332.03;5050165;28;20117;-68
2022/08/26 07:03:38;;;;;;;9.85;9.45;;;;;;;39.33;30.05;100324.75;5048546;28;20036;-67
2022/08/26 07:06:04;;;;;;;9.80;9.40;;;;;;;39.74;29.89;100323.78;5049541;28;20043;-69
2022/08/26 07:08:29;;;;;;;9.77;9.38;;;;;;;39.59;29.94;100321.16;5049509;28;20116;-68
2022/08/26 07:10:56;;;;;;;9.88;9.48;;;;;;;38.68;30.94;100318.13;5052463;28;20059;-68
2022/08/26 07:13:22;;;;;;;9.80;9.40;;;;;;;40.19;29.63;100327.50;5061046;28;20082;-69
2022/08/26 07:15:48;;;;;;;9.93;9.52;;;;;;;39.85;29.91;100314.75;5054163;28;20483;-68
2022/08/26 07:18:13;;;;;;;9.82;9.43;;;;;;;40.03;28.97;100313.84;5056403;28;20037;-68
2022/08/26 07:20:40;;;;;;;9.88;9.48;;;;;;;38.61;29.75;100301.38;5046367;28;20060;-69
2022/08/26 07:23:07;;;;;;;9.75;9.35;;;;;;;39.81;29.44;100305.56;5059832;28;20024;-68
2022/08/26 07:25:38;;;;;;;9.80;9.40;;;;;;;40.70;29.06;100309.38;5043011;28;20862;-69
2022/08/26 07:28:04;;;;;;;10.05;9.65;;;;;;;40.55;28.39;100295.34;5050132;28;20024;-69
2022/08/26 07:30:29;;;;;;;9.85;9.45;;;;;;;40.08;28.83;100296.00;5049443;28;20044;-68
2022/08/26 07:32:56;;;;;;;9.73;9.32;;;;;;;40.74;28.62;100293.50;5048162;28;20396;-67
2022/08/26 07:35:22;;;;;;;10.20;9.80;;;;;;;40.93;28.48;100293.28;5048934;28;20025;-69
2022/08/26 07:37:47;;;;;;;10.00;9.60;;;;;;;40.42;29.33;100288.44;5049472;28;20041;-67
2022/08/26 07:40:14;;;;;;;9.73;9.32;;;;;;;40.55;28.68;100291.75;5048558;28;20514;-67
2022/08/26 07:42:40;;;;;;;9.88;9.48;;;;;;;41.22;28.25;100288.72;5049526;28;20036;-69
2022/08/26 07:45:07;;;;;;;9.70;9.30;;;;;;;41.26;27.96;100285.94;5052110;28;20761;-68
2022/08/26 07:47:32;;;;;;;9.98;9.57;;;;;;;40.37;28.24;100294.31;5059691;28;20045;-68
2022/08/26 07:49:58;;;;;;;9.75;9.35;;;;;;;40.61;27.69;100284.63;5064915;28;20017;-68
2022/08/26 07:52:25;;;;;;;10.05;9.65;;;;;;;40.53;27.10;100291.31;5049640;28;20473;-67
2022/08/26 07:54:51;;;;;;;9.90;9.50;;;;;;;40.32;27.28;100284.38;5049642;28;20098;-69
2022/08/26 07:57:16;;;;;;;10.00;9.60;;;;;;;39.37;27.83;100284.78;5048174;28;20554;-68
2022/08/26 07:59:42;;;;;;;9.75;9.35;;;;;;;40.32;27.68;100283.53;5048000;28;20091;-68
2022/08/26 08:02:07;;;;;;;9.65;9.25;;;;;;;39.89;28.13;100274.75;5047545;28;20395;-70
2022/08/26 08:04:33;;;;;;;9.80;9.40;;;;;;;40.69;26.98;100264.03;5048697;28;20025;-69
2022/08/26 08:06:58;;;;;;;9.80;9.40;;;;;;;40.02;28.02;100275.31;5049401;28;20020;-69
2022/08/26 08:09:24;;;;;;;9.90;9.50;;;;;;;40.58;27.53;100263.19;5049255;28;20025;-68
2022/08/26 08:11:51;;;;;;;10.20;9.80;;;;;;;38.75;29.68;100262.00;5049380;28;20063;-67
2022/08/26 08:14:18;;;;;;;10.20;9.80;;;;;;;39.91;27.76;100266.84;5052183;28;20048;-68
2022/08/26 08:16:44;;;;;;;9.82;9.43;;;;;;;40.10;27.84;100265.06;5040696;28;20484;-67
2022/08/26 08:19:09;;;;;;;10.10;9.70;;;;;;;39.45;28.48;100258.72;5048849;28;20036;-67
2022/08/26 08:21:35;;;;;;;9.90;9.50;;;;;;;39.13;28.84;100268.53;5049379;28;20021;-68
2022/08/26 08:24:00;;;;;;;9.95;9.55;;;;;;;39.39;28.35;100262.19;5049205;28;20029;-67
2022/08/26 08:26:26;;;;;;;9.85;9.45;;;;;;;39.63;28.43;100258.16;5048766;28;20040;-67
2022/08/26 08:28:54;;;;;;;10.02;9.63;;;;;;;38.89;28.81;100258.66;5048733;28;20025;-68
2022/08/26 08:31:23;;;;;;;10.20;9.80;;;;;;;37.95;30.66;100251.81;5048959;28;20115;-68
2022/08/26 08:33:48;;;;;;;9.95;9.55;;;;;;;38.24;30.23;100251.22;5049026;28;20086;-68
2022/08/26 08:36:15;;;;;;;10.00;9.60;;;;;;;38.62;29.64;100246.72;5046959;28;20484;-67
2022/08/26 08:38:44;;;;;;;10.10;9.70;;;;;;;37.52;30.25;100245.38;5048371;28;20117;-69
2022/08/26 08:41:39;;;;;;;10.20;9.80;;;;;;;36.39;31.15;100242.31;5049105;28;20388;-66
2022/08/26 08:44:12;;;;;;;9.93;9.52;;;;;;;37.77;30.35;100240.38;5049629;28;20060;-66
2022/08/26 08:46:41;;;;;;;10.20;9.80;;;;;;;37.23;30.40;100241.97;5039214;28;20575;-67
2022/08/26 08:49:07;;;;;;;9.80;9.40;;;;;;;37.16;30.82;100241.03;5050544;28;20040;-67
2022/08/26 08:51:58;;;;;;;9.98;9.57;;;;;;;36.77;31.03;100236.16;5050118;28;20440;-67
2022/08/26 08:54:25;;;;;;;9.60;9.20;;;;;;;37.13;30.64;100239.78;5051592;28;20017;-67
2022/08/26 08:57:07;;;;;;;9.77;9.38;;;;;;;36.54;31.48;100235.19;5051441;28;20021;-67
2022/08/26 08:59:38;;;;;;;10.15;9.75;;;;;;;36.07;33.37;100243.44;5051612;28;20365;-66
2022/08/26 09:02:37;;;;;;;10.05;9.65;;;;;;;35.48;33.26;100239.38;5051624;28;20086;-67
2022/08/26 09:05:11;;;;;;;9.82;9.43;;;;;;;34.66;34.48;100244.22;5051697;28;20033;-66
2022/08/26 09:07:42;;;;;;;10.00;9.60;;;;;;;36.34;33.83;100238.97;5051751;28;20028;-66
2022/08/26 09:10:26;;;;;;;9.85;9.45;;;;;;;36.17;33.77;100226.31;5051704;28;20484;-66
2022/08/26 09:12:51;;;;;;;10.15;9.75;;;;;;;36.45;33.96;100229.84;5051606;28;20033;-66
2022/08/26 09:15:23;;;;;;;9.75;9.35;;;;;;;36.56;35.03;100235.63;5051715;28;20025;-66
2022/08/26 09:17:58;;;;;;;9.80;9.40;;;;;;;36.78;33.72;100231.44;5051289;28;20484;-67
2022/08/26 09:20:42;;;;;;;10.02;9.63;;;;;;;36.92;33.56;100214.41;5051594;28;20025;-67
2022/08/26 09:23:09;;;;;;;9.65;9.25;;;;;;;36.14;34.20;100216.81;5051506;28;20107;-66
2022/08/26 09:25:48;;;;;;;9.90;9.50;;;;;;;35.94;34.78;100210.34;5051627;28;20485;-66
2022/08/26 09:28:18;;;;;;;9.50;9.10;;;;;;;36.60;34.57;100208.09;5051408;28;20032;-66
2022/08/26 09:30:45;;;;;;;10.30;9.80;;;;;;;36.11;35.32;100202.88;5051367;28;20035;-66
2022/08/26 09:33:16;;;;;;;10.00;9.60;;;;;;;35.78;35.66;100200.41;5037452;28;20111;-66
2022/08/26 09:35:46;;;;;;;10.05;9.65;;;;;;;35.72;35.72;100202.59;5037292;28;20029;-65
2022/08/26 09:38:31;;;;;;;10.07;9.68;;;;;;;35.50;36.55;100192.13;5050853;28;20509;-67
2022/08/26 09:41:20;;;;;;;10.00;9.60;;;;;;;34.99;38.04;100205.53;5051364;28;20039;-65
2022/08/26 09:44:14;;;;;;;9.82;9.43;;;;;;;36.37;35.79;100194.91;5038163;28;20035;-66
2022/08/26 09:46:44;;;;;;;9.77;9.38;;;;;;;35.96;36.92;100196.19;5051522;28;20534;-66
2022/08/26 09:49:25;;;;;;;9.90;9.50;;;;;;;35.70;37.46;100186.41;5051635;28;20413;-66
2022/08/26 09:52:05;;;;;;;9.75;9.35;;;;;;;35.92;37.73;100179.53;5051395;28;20794;-66
2022/08/26 09:54:30;;;;;;;9.70;9.30;;;;;;;36.42;36.05;100186.34;5051384;28;20033;-66
2022/08/26 09:57:15;;;;;;;9.63;9.23;;;;;;;34.67;39.29;100179.69;5051345;28;20055;-66
2022/08/26 09:59:41;;;;;;;9.85;9.45;;;;;;;35.64;38.96;100176.78;5050996;28;20439;-65
2022/08/26 10:02:22;;;;;;;9.70;9.30;;;;;;;34.75;40.99;100187.84;5051170;28;20032;-66
2022/08/26 10:04:52;;;;;;;9.70;9.30;;;;;;;35.00;40.26;100176.81;5051346;28;20037;-66
2022/08/26 10:07:47;;;;;;;9.63;9.23;;;;;;;35.43;39.54;100179.72;5051072;28;20017;-66
2022/08/26 10:10:16;;;;;;;;;;;;;;;35.08;40.76;100167.63;5054819;28;20025;-67
2022/08/26 10:13:01;;;;;;;9.50;9.10;;;;;;;34.92;40.77;100170.28;5054996;28;19913;-66
2022/08/26 10:15:34;;;;;;;9.90;9.50;;;;;;;34.90;40.91;100172.56;5055133;28;20043;-66
2022/08/26 10:18:10;;;;;;;9.55;9.15;;;;;;;34.74;42.59;100166.13;5055682;28;20087;-66
2022/08/26 10:20:41;;;;;;;9.68;9.27;;;;;;;34.33;41.93;100166.00;5055225;28;20021;-66
2022/08/26 10:23:16;;;;;;;9.70;9.30;;;;;;;32.97;44.33;100156.72;5055110;28;20052;-66
2022/08/26 10:25:52;;;;;;;9.85;9.45;;;;;;;34.24;42.77;100151.53;5055037;28;20124;-66
2022/08/26 10:28:44;;;;;;;9.55;9.15;;;;;;;34.85;41.14;100150.75;5054937;28;20021;-66
2022/08/26 10:31:18;;;;;;;9.82;9.43;;;;;;;34.80;41.13;100150.97;5037248;28;20077;-66
2022/08/26 10:33:44;;;;;;;9.60;9.20;;;;;;;34.71;41.18;100147.53;5055389;28;20039;-67
2022/08/26 10:37:00;;;;;;;9.90;9.50;;;;;;;34.33;40.61;100146.72;5055075;28;20485;-66
2022/08/26 10:39:06;;;;;;;9.77;9.38;;;;;;;33.81;42.02;100141.78;5050639;28;20045;-67
2022/08/26 10:41:36;;;;;;;9.50;9.10;;;;;;;34.60;40.70;100144.47;5055119;28;20125;-65
2022/08/26 10:44:05;;;;;;;9.70;9.30;;;;;;;34.74;38.15;100144.91;5054656;28;20033;-65
2022/08/26 10:46:41;;;;;;;9.70;9.30;;;;;;;34.88;38.71;100142.56;5054377;28;20053;-67
2022/08/26 10:49:14;;;;;;;9.55;9.15;;;;;;;34.93;37.24;100135.25;5054739;28;20103;-66
2022/08/26 10:52:02;;;;;;;9.60;9.20;;;;;;;33.78;38.22;100130.66;5054479;28;20028;-66
2022/08/26 10:54:38;;;;;;;10.10;9.70;;;;;;;34.44;36.61;100135.28;5054672;28;20041;-65
2022/08/26 10:57:24;;;;;;;9.63;9.23;;;;;;;34.15;34.34;100125.25;5053622;28;20110;-67
2022/08/26 11:01:40;;;;;;;9.90;9.50;;;;;;;34.59;33.74;100132.63;5054394;28;20036;-67
2022/08/26 11:03:39;;;;;;;9.50;9.10;;;;;;;31.82;35.21;100123.78;5053028;28;20047;-66
2022/08/26 11:06:30;;;;;;;9.45;9.05;;;;;;;32.42;36.40;100131.00;5054053;28;20056;-66
2022/08/26 11:08:57;;;;;;;9.60;9.20;;;;;;;32.92;34.60;100130.25;5048949;28;20029;-66
2022/08/26 11:11:38;;;;;;;10.63;10.13;;;;;;;32.40;34.58;100125.06;5053841;28;20017;-66
2022/08/26 11:14:20;;;;;;;9.73;9.32;;;;;;;33.16;34.28;100117.78;5054090;28;20045;-66
2022/08/26 11:16:53;;;;;;;9.75;9.35;;;;;;;31.96;35.42;100123.59;5052804;28;20083;-65
2022/08/26 11:19:38;;;;;;;10.00;9.60;;;;;;;32.13;35.48;100118.03;5050128;28;20118;-66
2022/08/26 11:22:41;;;;;;;9.88;9.48;;;;;;;33.36;34.71;100110.69;5050798;28;20053;-68
2022/08/26 11:25:12;;;;;;;9.48;9.07;;;;;;;31.73;36.01;100120.25;5041759;28;20028;-66
2022/08/26 11:27:38;;;;;;;10.20;9.80;;;;;;;31.78;35.30;100122.81;5047709;28;20400;-66
2022/08/26 11:30:38;;;;;;;9.82;9.43;;;;;;;32.88;34.63;100134.81;5050525;28;20045;-68
2022/08/26 11:33:04;;;;;;;10.30;9.85;;;;;;;33.41;33.88;100121.47;5047952;28;20033;-66
2022/08/26 11:35:34;;;;;;;9.95;9.55;;;;;;;32.92;34.42;100123.97;5049081;28;20024;-67